Data for 11/29/2014

Time Sea-Level Adjusted Pressure Absolute Pressure Temperature Relative Humidity Dew Point   
(mb) (inHg) (mb) (inHg) (C) (F) (%) (C) (F)
00:05 1000 29.53 830 24.51 9.8 49.7 22 -11 12.1
00:10 1000 29.53 829 24.48 9.9 49.8 22 -10.7 12.8
00:15 1000 29.53 829 24.48 9.9 49.8 22 -10.7 12.7
00:20 1000 29.53 830 24.51 9.8 49.7 23 -10.6 12.9
00:25 1000 29.53 830 24.51 9.8 49.7 24 -10 14
00:30 1000 29.53 829 24.48 9.6 49.2 24 -10.1 13.9
00:35 1000 29.53 829 24.48 9.4 48.8 24 -10.1 13.9
00:40 1000 29.53 829 24.48 9.2 48.5 24 -10.2 13.7
00:45 1000 29.53 829 24.48 9.1 48.4 24 -10.3 13.4
00:50 1000 29.53 829 24.48 9.2 48.5 25 -9.9 14.1
00:55 1000 29.53 829 24.48 9.2 48.5 25 -9.8 14.3
01:00 1000 29.53 829 24.48 9.2 48.5 25 -10.1 13.8
01:05 1000 29.53 829 24.48 9.1 48.4 26 -9.6 14.7
01:10 1000 29.53 829 24.48 8.9 48.1 26 -9.7 14.5
01:15 1000 29.53 829 24.48 8.8 47.8 26 -9.8 14.4
01:20 1000 29.53 829 24.48 8.7 47.7 26 -9.7 14.6
01:25 1000 29.53 829 24.48 8.6 47.4 26 -9.7 14.5
01:30 1000 29.53 829 24.48 8.8 47.8 26 -9.8 14.4
01:35 1000 29.53 829 24.48 8.8 47.9 26 -9.9 14.2
01:40 1000 29.53 829 24.48 8.9 48.1 25 -9.9 14.2
01:45 1000 29.53 829 24.48 9 48.3 25 -10 14.1
01:50 1000 29.53 829 24.48 9 48.3 26 -9.5 14.9
01:55 999 29.5 829 24.48 9 48.1 26 -9.6 14.6
02:00 999 29.5 829 24.48 8.9 48 26 -9.5 15
02:05 999 29.5 829 24.48 8.9 48 26 -9.6 14.7
02:10 999 29.5 829 24.48 8.9 48 27 -9.4 15.2
02:15 999 29.5 829 24.48 8.8 47.8 27 -9.3 15.3
02:20 999 29.5 829 24.48 8.6 47.5 27 -9.5 14.9
02:25 1000 29.53 829 24.48 8.8 47.8 27 -9.3 15.3
02:30 1000 29.53 829 24.48 8.9 48.1 27 -9.3 15.3
02:35 999 29.5 829 24.48 9 48.3 27 -9.2 15.4
02:40 999 29.5 829 24.48 9.1 48.4 27 -9 15.9
02:45 999 29.5 829 24.48 8.9 48.1 28 -8.5 16.7
02:50 999 29.5 829 24.48 8.7 47.7 29 -8.4 16.9
02:55 999 29.5 829 24.48 8.6 47.4 29 -8.5 16.7
03:00 999 29.5 829 24.48 8.5 47.2 29 -8.5 16.7
03:05 999 29.5 829 24.48 8.4 47.2 28 -9 15.7
03:10 999 29.5 829 24.48 8.7 47.6 28 -9.1 15.7
03:15 1000 29.53 829 24.48 8.5 47.2 28 -8.8 16.1
03:20 999 29.5 829 24.48 8.8 47.8 28 -8.8 16.2
03:25 999 29.5 829 24.48 9.2 48.6 28 -8.5 16.7
03:30 999 29.5 829 24.48 9.2 48.6 28 -8.5 16.6
03:35 999 29.5 829 24.48 9.1 48.4 28 -8.6 16.6
03:40 999 29.5 829 24.48 8.8 47.9 28 -8.7 16.3
03:45 999 29.5 829 24.48 8.8 47.8 28 -8.9 16
03:50 999 29.5 829 24.48 8.9 48.1 28 -8.6 16.6
03:55 999 29.5 829 24.48 8.9 47.9 29 -8 17.5
04:00 999 29.5 828 24.45 8.7 47.6 30 -8 17.7
04:05 999 29.5 828 24.45 8.5 47.3 30 -8 17.7
04:10 999 29.5 828 24.45 8.3 47 31 -7.8 17.9
04:15 999 29.5 828 24.45 8.1 46.6 30 -8.5 16.6
04:20 999 29.5 828 24.45 8.5 47.3 27 -9.3 15.3
04:25 999 29.5 828 24.45 8.7 47.7 28 -8.8 16.2
04:30 999 29.5 828 24.45 8.4 47.2 28 -9 15.8
04:35 999 29.5 828 24.45 8.5 47.2 28 -8.9 16.1
04:40 998 29.47 828 24.45 8.5 47.2 28 -9.1 15.7
04:45 998 29.47 828 24.45 8.5 47.2 28 -9 15.8
04:50 998 29.47 828 24.45 8.6 47.4 28 -8.8 16.1
04:55 998 29.47 828 24.45 8.8 47.8 29 -8.4 16.9
05:00 998 29.47 828 24.45 8.9 47.9 29 -8.1 17.4
05:05 998 29.47 828 24.45 8.7 47.6 29 -8.5 16.7
05:10 998 29.47 827 24.42 8.6 47.6 29 -8.5 16.8
05:15 998 29.47 827 24.42 8.5 47.3 29 -8.4 16.9
05:20 998 29.47 827 24.42 8.2 46.8 30 -8.3 17
05:25 998 29.47 827 24.42 8 46.4 30 -8.6 16.6
05:30 998 29.47 827 24.42 7.9 46.3 30 -8.4 16.8
05:35 998 29.47 827 24.42 7.7 45.9 31 -8.4 16.9
05:40 998 29.47 827 24.42 7.5 45.5 31 -8.6 16.6
05:45 998 29.47 827 24.42 7.5 45.5 31 -8.7 16.4
05:50 998 29.47 827 24.42 7.8 46 31 -8.5 16.7
05:55 997 29.44 827 24.42 8.1 46.5 30 -8.5 16.7
06:00 997 29.44 827 24.42 8.6 47.4 29 -8.3 17
06:05 997 29.44 827 24.42 8.8 47.9 30 -8 17.5
06:10 997 29.44 827 24.42 8.7 47.6 30 -7.8 18
06:15 997 29.44 827 24.42 8.7 47.7 31 -7.6 18.3
06:20 997 29.44 827 24.42 8.5 47.3 30 -8 17.6
06:25 997 29.44 826 24.39 8.8 47.9 30 -7.7 18.1
06:30 997 29.44 826 24.39 8.8 47.8 31 -7.6 18.3
06:35 997 29.44 826 24.39 8.8 47.8 31 -7.5 18.4
06:40 997 29.44 826 24.39 8.7 47.7 30 -7.7 18.1
06:45 997 29.44 826 24.39 8.8 47.9 31 -7.3 18.8
06:50 997 29.44 826 24.39 8.7 47.7 32 -7.2 19.1
06:55 997 29.44 826 24.39 8.6 47.5 33 -6.9 19.6
07:00 997 29.44 826 24.39 8.4 47.2 33 -7.1 19.3
07:05 997 29.44 826 24.39 8.3 46.9 32 -7.3 18.8
07:10 997 29.44 826 24.39 8.2 46.8 33 -7.2 19
07:15 997 29.44 826 24.39 8.1 46.6 33 -7.4 18.7
07:20 997 29.44 826 24.39 8.1 46.6 33 -7.2 19.1
07:25 997 29.44 826 24.39 8.1 46.5 33 -7.2 19
07:30 997 29.44 826 24.39 8.1 46.6 33 -7.1 19.2
07:35 997 29.44 826 24.39 8 46.4 33 -7.2 19.1
07:40 997 29.44 826 24.39 8.3 47 32 -7.3 18.8
07:45 996 29.41 826 24.39 8.7 47.6 32 -7.3 18.9
07:50 996 29.41 826 24.39 9 48.1 30 -7.7 18.2
07:55 996 29.41 825 24.36 9.2 48.5 31 -7 19.4
08:00 996 29.41 825 24.36 8.9 48.1 32 -7.1 19.3
08:05 996 29.41 825 24.36 8.9 48.1 32 -7.1 19.3
08:10 996 29.41 825 24.36 8.8 47.8 32 -7 19.4
08:15 996 29.41 825 24.36 8.6 47.5 32 -7 19.4
08:20 996 29.41 825 24.36 8.5 47.3 32 -7.1 19.2
08:25 996 29.41 825 24.36 8.5 47.4 32 -7.4 18.7
08:30 996 29.41 825 24.36 8.8 47.9 31 -7.6 18.3
08:35 996 29.41 825 24.36 8.9 48.1 31 -7.3 18.9
08:40 996 29.41 825 24.36 9.1 48.4 30 -7.5 18.6
08:45 996 29.41 825 24.36 9.3 48.8 31 -7.1 19.1
08:50 996 29.41 825 24.36 9.1 48.3 31 -7.3 18.9
08:55 996 29.41 825 24.36 8.8 47.8 33 -6.6 20.2
09:00 996 29.41 825 24.36 8.1 46.6 35 -6.5 20.3
09:05 996 29.41 825 24.36 7.9 46.2 35 -6.6 20.1
09:10 996 29.41 826 24.39 8 46.4 35 -6.7 20
09:15 996 29.41 826 24.39 8.1 46.6 34 -6.8 19.7
09:20 996 29.41 826 24.39 8.2 46.7 34 -6.8 19.7
09:25 996 29.41 826 24.39 8.3 46.9 34 -6.6 20
09:30 996 29.41 826 24.39 8.3 46.9 34 -6.6 20.2
09:35 997 29.44 826 24.39 8.3 46.9 34 -6.6 20.1
09:40 997 29.44 826 24.39 8.4 47.1 35 -6.4 20.5
09:45 997 29.44 826 24.39 8.5 47.3 34 -6.6 20.1
09:50 997 29.44 826 24.39 8.7 47.7 34 -6.4 20.4
09:55 997 29.44 826 24.39 9.2 48.5 33 -6.3 20.7
10:00 997 29.44 826 24.39 9.4 48.9 31 -6.7 19.9
10:05 997 29.44 826 24.39 9.8 49.6 32 -6 21.2
10:10 997 29.44 826 24.39 5.8 42.5 53 -3 26.5
10:15 997 29.44 826 24.39 2.4 36.3 58 -5 23.1
10:20 997 29.44 826 24.39 1.6 34.8 60 -5.4 22.2
10:25 997 29.44 826 24.39 1.6 34.8 59 -5.6 22
10:30 997 29.44 826 24.39 2 35.7 57 -5.6 21.9
10:35 997 29.44 826 24.39 2.6 36.6 55 -5.6 22
10:40 997 29.44 826 24.39 3.3 37.9 54 -5.2 22.6
10:45 997 29.44 826 24.39 3.5 38.3 53 -5.1 22.8
10:50 997 29.44 827 24.42 1 33.9 58 -6.4 20.6
10:55 998 29.47 827 24.42 -2 28.4 62 -8.2 17.2
11:00 998 29.47 827 24.42 -3 26.5 65 -8.8 16.1
11:05 998 29.47 827 24.42 -3.4 25.9 65 -9 15.8
11:10 998 29.47 827 24.42 -3.6 25.5 65 -9.2 15.4
11:15 998 29.47 827 24.42 -4 24.8 66 -9.4 15.1
11:20 998 29.47 828 24.45 -4.3 24.3 67 -9.5 14.9
11:25 999 29.5 828 24.45 -4.3 24.3 66 -9.8 14.4
11:30 999 29.5 828 24.45 -4.5 23.9 66 -9.9 14.2
11:35 999 29.5 828 24.45 -4.6 23.7 66 -10.1 13.9
11:40 999 29.5 828 24.45 -5.2 22.6 67 -10.4 13.3
11:45 999 29.5 828 24.45 -5.5 22.2 67 -10.7 12.8
11:50 999 29.5 828 24.45 -5.7 21.7 67 -10.9 12.4
11:55 999 29.5 829 24.48 -5.5 22.1 64 -11.2 11.8
12:00 999 29.5 829 24.48 -5.6 21.9 65 -11.1 12
12:05 1000 29.53 829 24.48 -5.9 21.4 69 -10.6 12.9
12:10 1000 29.53 829 24.48 -6.5 20.4 70 -11 12.2
12:15 1000 29.53 830 24.51 -6.7 19.9 67 -11.8 10.8
12:20 1001 29.56 830 24.51 -7.6 18.4 71 -12 10.4
12:25 1001 29.56 830 24.51 -8.1 17.4 71 -12.5 9.5
12:30 1002 29.59 831 24.54 -8.6 16.6 71 -12.9 8.7
12:35 1002 29.59 831 24.54 -9.1 15.7 71 -13.4 7.8
12:40 1002 29.59 831 24.54 -9.1 15.5 73 -13.1 8.4
12:45 1001 29.56 831 24.54 -9.4 15 75 -13.1 8.3
12:50 1002 29.59 831 24.54 -8.9 16 74 -12.7 9.1
12:55 1002 29.59 831 24.54 -8.5 16.7 74 -12.4 9.7
13:00 1002 29.59 831 24.54 -8.4 17 70 -12.9 8.8
13:05 1002 29.59 831 24.54 -9.5 15 74 -13.3 8.1
13:10 1002 29.59 831 24.54 -10 14 78 -13.1 8.5
13:15 1002 29.59 831 24.54 -9.8 14.3 76 -13.4 7.9
13:20 1002 29.59 831 24.54 -9.8 14.3 79 -12.9 8.8
13:25 1002 29.59 832 24.57 -9.7 14.6 78 -12.7 9.1
13:30 1002 29.59 831 24.54 -9.7 14.5 79 -12.6 9.2
13:35 1003 29.62 832 24.57 -9.9 14.2 79 -12.9 8.7
13:40 1003 29.62 832 24.57 -10.3 13.5 75 -14 6.8
13:45 1003 29.62 832 24.57 -11.9 10.7 75 -15.5 4.2
13:50 1003 29.62 833 24.6 -13 8.6 77 -16.3 2.6
13:55 1004 29.65 833 24.6 -13.6 7.6 78 -16.6 2.1
14:00 1004 29.65 833 24.6 -13.9 7 80 -16.6 2.2
14:05 1004 29.65 833 24.6 -13.9 7 78 -17 1.5
14:10 1004 29.65 833 24.6 -14.2 6.5 79 -17 1.4
14:15 1004 29.65 833 24.6 -14.5 5.8 79 -17.4 0.7
14:20 1003 29.62 833 24.6 -14.9 5.3 83 -17.1 1.2
14:25 1004 29.65 833 24.6 -14.5 6 81 -17.1 1.2
14:30 1004 29.65 833 24.6 -14.5 5.9 81 -17 1.4
14:35 1004 29.65 833 24.6 -14.6 5.8 81 -17.1 1.1
14:40 1004 29.65 833 24.6 -14.6 5.7 80 -17.4 0.6
14:45 1004 29.65 833 24.6 -15 5.1 80 -17.7 0.1
14:50 1004 29.65 833 24.6 -15.3 4.5 83 -17.6 0.3
14:55 1004 29.65 833 24.6 -15.2 4.7 83 -17.4 0.6
15:00 1004 29.65 833 24.6 -14.9 5.1 82 -17.4 0.6
15:05 1004 29.65 833 24.6 -14.7 5.5 81 -17.4 0.7
15:10 1004 29.65 833 24.6 -14.4 6 80 -17.2 1
15:15 1004 29.65 833 24.6 -14.4 6 77 -17.6 0.4
15:20 1004 29.65 833 24.6 -14.6 5.8 79 -17.5 0.4
15:25 1004 29.65 833 24.6 -14.6 5.8 78 -17.6 0.4
15:30 1004 29.65 833 24.6 -14.6 5.8 78 -17.6 0.4
15:35 1004 29.65 833 24.6 -14.8 5.4 76 -18.1 -0.7
15:40 1004 29.65 834 24.63 -15.1 4.9 78 -18.1 -0.6
15:45 1004 29.65 834 24.63 -14.9 5.1 79 -17.9 -0.2
15:50 1004 29.65 834 24.63 -14.7 5.5 75 -18.2 -0.7
15:55 1004 29.65 834 24.63 -14.9 5.2 77 -18.1 -0.6
16:00 1005 29.68 834 24.63 -15.1 4.9 77 -18.2 -0.7
16:05 1005 29.68 834 24.63 -15.1 4.8 78 -18.2 -0.7
16:10 1005 29.68 834 24.63 -15.2 4.6 78 -18.3 -0.9
16:15 1005 29.68 834 24.63 -15.4 4.3 78 -18.4 -1
16:20 1005 29.68 834 24.63 -15.3 4.5 78 -18.4 -1.1
16:25 1005 29.68 834 24.63 -15.3 4.5 78 -18.2 -0.8
16:30 1005 29.68 835 24.66 -15.4 4.4 79 -18.2 -0.7
16:35 1006 29.71 835 24.66 -15.5 4.2 79 -18.4 -1.1
16:40 1006 29.71 835 24.66 -15.6 4 77 -18.7 -1.6
16:45 1005 29.68 835 24.66 -15.8 3.6 78 -18.8 -1.8
16:50 1006 29.71 835 24.66 -15.9 3.4 80 -18.6 -1.4
16:55 1006 29.71 835 24.66 -15.9 3.4 79 -18.7 -1.7
17:00 1006 29.71 835 24.66 -15.9 3.4 79 -18.8 -1.8
17:05 1006 29.71 835 24.66 -15.8 3.5 78 -18.8 -1.8
17:10 1006 29.71 835 24.66 -15.8 3.5 79 -18.7 -1.7
17:15 1006 29.71 835 24.66 -15.9 3.5 79 -18.7 -1.6
17:20 1006 29.71 835 24.66 -15.8 3.5 80 -18.6 -1.4
17:25 1006 29.71 835 24.66 -15.8 3.6 80 -18.5 -1.4
17:30 1006 29.71 835 24.66 -15.7 3.7 80 -18.5 -1.2
17:35 1006 29.71 836 24.69 -15.9 3.5 80 -18.6 -1.5
17:40 1006 29.71 835 24.66 -16 3.2 79 -18.8 -1.8
17:45 1006 29.71 835 24.66 -16.1 3.1 81 -18.7 -1.6
17:50 1006 29.71 836 24.69 -16 3.2 79 -18.8 -1.9
17:55 1006 29.71 835 24.66 -16 3.1 80 -18.8 -1.9
18:00 1006 29.71 835 24.66 -16 3.3 79 -18.8 -1.9
18:05 1006 29.71 835 24.66 -16.1 3.1 79 -18.9 -2.1
18:10 1006 29.71 835 24.66 -16.2 2.9 79 -19.1 -2.3
18:15 1006 29.71 836 24.69 -16.2 2.8 78 -19.2 -2.5
18:20 1006 29.71 835 24.66 -16.2 2.8 79 -19 -2.2
18:25 1006 29.71 835 24.66 -16.2 2.9 79 -19.1 -2.3
18:30 1006 29.71 836 24.69 -16.3 2.7 78 -19.3 -2.8
18:35 1006 29.71 836 24.69 -16.3 2.7 77 -19.4 -2.9
18:40 1007 29.74 836 24.69 -16.4 2.5 78 -19.4 -2.9
18:45 1007 29.74 836 24.69 -16.5 2.2 79 -19.4 -3
18:50 1007 29.74 836 24.69 -16.6 2.2 79 -19.5 -3
18:55 1007 29.74 836 24.69 -16.7 1.9 80 -19.4 -2.9
19:00 1007 29.74 836 24.69 -16.7 2 79 -19.5 -3.2
19:05 1007 29.74 836 24.69 -16.7 2 77 -19.8 -3.6
19:10 1007 29.74 836 24.69 -16.8 1.7 78 -19.7 -3.5
19:15 1007 29.74 836 24.69 -16.8 1.8 79 -19.6 -3.3
19:20 1007 29.74 836 24.69 -16.7 1.9 79 -19.6 -3.2
19:25 1007 29.74 836 24.69 -16.8 1.8 78 -19.7 -3.5
19:30 1007 29.74 836 24.69 -16.9 1.6 78 -19.9 -3.9
19:35 1007 29.74 836 24.69 -17 1.5 79 -19.8 -3.6
19:40 1007 29.74 836 24.69 -16.8 1.7 78 -19.8 -3.7
19:45 1007 29.74 836 24.69 -16.7 1.9 77 -19.9 -3.7
19:50 1007 29.74 836 24.69 -17 1.3 77 -20.2 -4.4
19:55 1007 29.74 836 24.69 -17.1 1.1 79 -20 -4.1
20:00 1007 29.74 836 24.69 -17 1.4 78 -20 -4
20:05 1007 29.74 836 24.69 -17 1.5 77 -20.1 -4.2
20:10 1007 29.74 836 24.69 -17 1.4 76 -20.2 -4.4
20:15 1007 29.74 836 24.69 -17.1 1.2 77 -20.3 -4.5
20:20 1007 29.74 836 24.69 -17.2 1 77 -20.3 -4.6
20:25 1007 29.74 836 24.69 -17.3 1 78 -20.2 -4.4
20:30 1007 29.74 837 24.72 -17.2 1.1 78 -20.2 -4.4
20:35 1008 29.77 837 24.72 -17.2 1.1 78 -20.2 -4.3
20:40 1007 29.74 837 24.72 -17.2 1.1 78 -20.2 -4.3
20:45 1007 29.74 837 24.72 -17.2 1.1 78 -20.2 -4.3
20:50 1008 29.77 837 24.72 -17.3 0.9 78 -20.2 -4.4
20:55 1008 29.77 837 24.72 -17.3 0.8 78 -20.3 -4.6
21:00 1008 29.77 837 24.72 -17.5 0.6 77 -20.5 -5
21:05 1008 29.77 837 24.72 -17.5 0.5 78 -20.4 -4.7
21:10 1008 29.77 837 24.72 -17.6 0.4 77 -20.7 -5.3
21:15 1008 29.77 837 24.72 -17.7 0.1 78 -20.7 -5.3
21:20 1008 29.77 837 24.72 -17.8 -0.1 77 -20.9 -5.5
21:25 1008 29.77 837 24.72 -17.8 -0.1 77 -20.9 -5.6
21:30 1008 29.77 837 24.72 -17.8 -0 77 -20.9 -5.6
21:35 1008 29.77 838 24.75 -17.8 -0.1 77 -20.9 -5.6
21:40 1009 29.8 838 24.75 -17.9 -0.3 79 -20.8 -5.5
21:45 1009 29.8 838 24.75 -18 -0.3 78 -20.9 -5.5
21:50 1009 29.8 838 24.75 -18 -0.4 80 -20.7 -5.3
21:55 1009 29.8 838 24.75 -18 -0.4 80 -20.7 -5.2
22:00 1009 29.8 838 24.75 -18 -0.4 80 -20.7 -5.2
22:05 1009 29.8 838 24.75 -18 -0.5 78 -21 -5.8
22:10 1009 29.8 839 24.78 -18.3 -1 80 -21 -5.8
22:15 1009 29.8 839 24.78 -18.3 -0.9 79 -21.1 -5.9
22:20 1010 29.83 839 24.78 -18.4 -1.2 80 -21.1 -6
22:25 1010 29.83 839 24.78 -18.4 -1.1 80 -21.1 -6
22:30 1010 29.83 839 24.78 -18.4 -1.1 79 -21.1 -6
22:35 1010 29.83 839 24.78 -18.4 -1.1 79 -21.1 -6.1
22:40 1010 29.83 840 24.81 -18.4 -1.2 80 -21.1 -6
22:45 1011 29.85 840 24.81 -18.4 -1.1 79 -21.3 -6.3
22:50 1011 29.85 840 24.81 -18.6 -1.4 79 -21.4 -6.5
22:55 1011 29.85 840 24.81 -18.7 -1.7 79 -21.5 -6.6
23:00 1011 29.85 840 24.81 -19 -2.1 79 -21.8 -7.3
23:05 1011 29.85 840 24.81 -19.1 -2.3 80 -21.7 -7.1
23:10 1012 29.88 841 24.83 -18.9 -2.1 79 -21.7 -7.1
23:15 1012 29.88 841 24.83 -19 -2.2 79 -21.8 -7.2
23:20 1012 29.88 841 24.83 -19 -2.2 80 -21.7 -7
23:25 1012 29.88 841 24.83 -19 -2.2 80 -21.7 -7
23:30 1012 29.88 841 24.83 -19.2 -2.5 78 -22 -7.7
23:35 1012 29.88 841 24.83 -19.3 -2.7 79 -22 -7.6
23:40 1012 29.88 841 24.83 -19.5 -3 78 -22.4 -8.3
23:45 1012 29.88 841 24.83 -19.5 -3.1 79 -22.3 -8.2
23:50 1012 29.88 841 24.83 -19.5 -3 79 -22.3 -8.1
23:55 1012 29.88 841 24.83 -19.4 -2.9 79 -22.2 -8
24:00 1012 29.88 841 24.83 -19.3 -2.7 79 -22 -7.6